sensor_id;sensor_type;location;lat;lon;timestamp;P1;durP1;ratioP1;P2;durP2;ratioP2
62479;SDS011;48526;48.846;2.322;2023-04-03T00:00:07;34.75;;;27.75;;
62479;SDS011;48526;48.846;2.322;2023-04-03T00:02:33;34.00;;;23.50;;
62479;SDS011;48526;48.846;2.322;2023-04-03T00:04:59;13.50;;;11.75;;
62479;SDS011;48526;48.846;2.322;2023-04-03T00:07:24;29.00;;;23.50;;
62479;SDS011;48526;48.846;2.322;2023-04-03T00:09:50;30.75;;;23.75;;
62479;SDS011;48526;48.846;2.322;2023-04-03T00:12:15;21.50;;;17.25;;
62479;SDS011;48526;48.846;2.322;2023-04-03T00:14:41;33.00;;;25.50;;
62479;SDS011;48526;48.846;2.322;2023-04-03T00:17:06;30.75;;;27.25;;
62479;SDS011;48526;48.846;2.322;2023-04-03T00:19:31;34.50;;;25.50;;
62479;SDS011;48526;48.846;2.322;2023-04-03T00:21:57;25.75;;;24.50;;
62479;SDS011;48526;48.846;2.322;2023-04-03T00:24:22;30.25;;;21.75;;
62479;SDS011;48526;48.846;2.322;2023-04-03T00:26:49;25.75;;;19.25;;
62479;SDS011;48526;48.846;2.322;2023-04-03T00:29:14;25.25;;;18.00;;
62479;SDS011;48526;48.846;2.322;2023-04-03T00:31:40;27.50;;;24.00;;
62479;SDS011;48526;48.846;2.322;2023-04-03T00:34:05;26.50;;;21.00;;
62479;SDS011;48526;48.846;2.322;2023-04-03T00:36:31;32.50;;;25.25;;
62479;SDS011;48526;48.846;2.322;2023-04-03T00:38:57;36.50;;;26.75;;
62479;SDS011;48526;48.846;2.322;2023-04-03T00:41:23;27.25;;;21.25;;
62479;SDS011;48526;48.846;2.322;2023-04-03T00:43:48;32.25;;;25.50;;
62479;SDS011;48526;48.846;2.322;2023-04-03T00:46:15;31.00;;;24.75;;
62479;SDS011;48526;48.846;2.322;2023-04-03T00:48:41;29.75;;;23.50;;
62479;SDS011;48526;48.846;2.322;2023-04-03T00:51:16;33.50;;;28.00;;
62479;SDS011;48526;48.846;2.322;2023-04-03T00:53:53;28.00;;;23.00;;
62479;SDS011;48526;48.846;2.322;2023-04-03T00:56:24;23.00;;;19.75;;
62479;SDS011;48526;48.846;2.322;2023-04-03T00:58:54;31.25;;;22.25;;
62479;SDS011;48526;48.846;2.322;2023-04-03T01:01:30;24.75;;;21.50;;
62479;SDS011;48526;48.846;2.322;2023-04-03T01:03:57;27.25;;;21.50;;
62479;SDS011;48526;48.846;2.322;2023-04-03T01:06:26;32.25;;;27.75;;
62479;SDS011;48526;48.846;2.322;2023-04-03T01:08:53;23.75;;;22.50;;
62479;SDS011;48526;48.846;2.322;2023-04-03T01:11:20;23.50;;;21.50;;
62479;SDS011;48526;48.846;2.322;2023-04-03T01:13:46;26.00;;;24.00;;
62479;SDS011;48526;48.846;2.322;2023-04-03T01:16:11;29.75;;;24.00;;
62479;SDS011;48526;48.846;2.322;2023-04-03T01:18:38;29.50;;;24.25;;
62479;SDS011;48526;48.846;2.322;2023-04-03T01:21:10;28.75;;;22.75;;
62479;SDS011;48526;48.846;2.322;2023-04-03T01:26:51;25.50;;;21.25;;
62479;SDS011;48526;48.846;2.322;2023-04-03T01:29:16;31.25;;;24.75;;
62479;SDS011;48526;48.846;2.322;2023-04-03T01:31:58;32.50;;;26.75;;
62479;SDS011;48526;48.846;2.322;2023-04-03T01:34:25;25.75;;;21.50;;
62479;SDS011;48526;48.846;2.322;2023-04-03T01:36:51;31.75;;;21.00;;
62479;SDS011;48526;48.846;2.322;2023-04-03T01:39:17;17.50;;;13.75;;
62479;SDS011;48526;48.846;2.322;2023-04-03T01:41:43;30.25;;;21.00;;
62479;SDS011;48526;48.846;2.322;2023-04-03T01:44:08;30.25;;;25.50;;
62479;SDS011;48526;48.846;2.322;2023-04-03T01:46:34;31.50;;;28.75;;
62479;SDS011;48526;48.846;2.322;2023-04-03T01:49:00;13.75;;;4.75;;
62479;SDS011;48526;48.846;2.322;2023-04-03T01:51:26;30.50;;;22.00;;
62479;SDS011;48526;48.846;2.322;2023-04-03T01:53:51;25.75;;;22.00;;
62479;SDS011;48526;48.846;2.322;2023-04-03T01:56:16;30.00;;;21.50;;
62479;SDS011;48526;48.846;2.322;2023-04-03T01:58:42;26.25;;;19.75;;
62479;SDS011;48526;48.846;2.322;2023-04-03T02:01:07;25.00;;;23.00;;
62479;SDS011;48526;48.846;2.322;2023-04-03T02:03:33;33.00;;;22.00;;
62479;SDS011;48526;48.846;2.322;2023-04-03T02:05:58;31.50;;;22.50;;
62479;SDS011;48526;48.846;2.322;2023-04-03T02:08:24;29.75;;;25.25;;
62479;SDS011;48526;48.846;2.322;2023-04-03T02:10:50;35.50;;;27.00;;
62479;SDS011;48526;48.846;2.322;2023-04-03T02:13:16;28.75;;;21.00;;
62479;SDS011;48526;48.846;2.322;2023-04-03T02:15:42;25.50;;;23.75;;
62479;SDS011;48526;48.846;2.322;2023-04-03T02:18:07;29.25;;;25.25;;
62479;SDS011;48526;48.846;2.322;2023-04-03T02:20:32;30.25;;;21.75;;
62479;SDS011;48526;48.846;2.322;2023-04-03T02:22:58;20.75;;;15.25;;
62479;SDS011;48526;48.846;2.322;2023-04-03T02:25:24;22.50;;;13.25;;
62479;SDS011;48526;48.846;2.322;2023-04-03T02:27:49;22.75;;;18.00;;
62479;SDS011;48526;48.846;2.322;2023-04-03T02:30:15;27.75;;;21.25;;
62479;SDS011;48526;48.846;2.322;2023-04-03T02:32:41;27.00;;;20.50;;
62479;SDS011;48526;48.846;2.322;2023-04-03T02:35:07;33.75;;;21.75;;
62479;SDS011;48526;48.846;2.322;2023-04-03T02:37:34;25.25;;;19.75;;
62479;SDS011;48526;48.846;2.322;2023-04-03T02:39:59;24.75;;;20.50;;
62479;SDS011;48526;48.846;2.322;2023-04-03T02:42:25;32.75;;;25.75;;
62479;SDS011;48526;48.846;2.322;2023-04-03T02:44:50;27.50;;;23.25;;
62479;SDS011;48526;48.846;2.322;2023-04-03T02:47:15;23.33;;;21.33;;
62479;SDS011;48526;48.846;2.322;2023-04-03T02:49:41;29.25;;;20.50;;
62479;SDS011;48526;48.846;2.322;2023-04-03T02:52:08;25.00;;;19.00;;
62479;SDS011;48526;48.846;2.322;2023-04-03T02:54:34;25.25;;;18.50;;
62479;SDS011;48526;48.846;2.322;2023-04-03T02:56:59;23.50;;;20.75;;
62479;SDS011;48526;48.846;2.322;2023-04-03T02:59:25;19.50;;;16.75;;
62479;SDS011;48526;48.846;2.322;2023-04-03T03:01:51;19.75;;;19.00;;
62479;SDS011;48526;48.846;2.322;2023-04-03T03:04:16;31.50;;;26.25;;
62479;SDS011;48526;48.846;2.322;2023-04-03T03:06:41;26.67;;;24.33;;
62479;SDS011;48526;48.846;2.322;2023-04-03T03:09:07;24.00;;;19.33;;
62479;SDS011;48526;48.846;2.322;2023-04-03T03:11:32;19.25;;;14.00;;
62479;SDS011;48526;48.846;2.322;2023-04-03T03:13:58;20.50;;;20.50;;
62479;SDS011;48526;48.846;2.322;2023-04-03T03:16:23;20.25;;;20.00;;
62479;SDS011;48526;48.846;2.322;2023-04-03T03:18:48;24.25;;;19.00;;
62479;SDS011;48526;48.846;2.322;2023-04-03T03:21:14;23.75;;;21.75;;
62479;SDS011;48526;48.846;2.322;2023-04-03T03:23:40;20.00;;;17.00;;
62479;SDS011;48526;48.846;2.322;2023-04-03T03:26:07;20.00;;;18.25;;
62479;SDS011;48526;48.846;2.322;2023-04-03T03:28:33;22.50;;;16.75;;
62479;SDS011;48526;48.846;2.322;2023-04-03T03:31:00;24.25;;;12.75;;
62479;SDS011;48526;48.846;2.322;2023-04-03T03:33:25;19.25;;;15.25;;
62479;SDS011;48526;48.846;2.322;2023-04-03T03:35:52;25.25;;;18.00;;
62479;SDS011;48526;48.846;2.322;2023-04-03T03:38:18;21.00;;;17.00;;
62479;SDS011;48526;48.846;2.322;2023-04-03T03:40:44;23.00;;;17.50;;
62479;SDS011;48526;48.846;2.322;2023-04-03T03:43:09;20.00;;;17.50;;
62479;SDS011;48526;48.846;2.322;2023-04-03T03:45:35;19.00;;;18.25;;
62479;SDS011;48526;48.846;2.322;2023-04-03T03:48:01;21.75;;;16.75;;
62479;SDS011;48526;48.846;2.322;2023-04-03T03:50:27;16.75;;;11.75;;
62479;SDS011;48526;48.846;2.322;2023-04-03T03:52:52;21.67;;;16.33;;
62479;SDS011;48526;48.846;2.322;2023-04-03T03:55:18;20.25;;;16.75;;
62479;SDS011;48526;48.846;2.322;2023-04-03T03:57:43;16.75;;;13.00;;
62479;SDS011;48526;48.846;2.322;2023-04-03T04:00:08;16.00;;;15.50;;
62479;SDS011;48526;48.846;2.322;2023-04-03T04:02:35;16.00;;;13.00;;
62479;SDS011;48526;48.846;2.322;2023-04-03T04:05:00;17.00;;;12.75;;
62479;SDS011;48526;48.846;2.322;2023-04-03T04:07:25;19.50;;;15.25;;
62479;SDS011;48526;48.846;2.322;2023-04-03T04:09:53;17.50;;;15.50;;
62479;SDS011;48526;48.846;2.322;2023-04-03T04:12:18;16.75;;;13.25;;
62479;SDS011;48526;48.846;2.322;2023-04-03T04:14:45;14.25;;;12.75;;
62479;SDS011;48526;48.846;2.322;2023-04-03T04:17:11;13.50;;;13.50;;
62479;SDS011;48526;48.846;2.322;2023-04-03T04:19:37;19.00;;;14.75;;
62479;SDS011;48526;48.846;2.322;2023-04-03T04:22:03;27.75;;;20.75;;
62479;SDS011;48526;48.846;2.322;2023-04-03T04:24:28;16.25;;;16.25;;
62479;SDS011;48526;48.846;2.322;2023-04-03T04:26:54;7.50;;;3.50;;
62479;SDS011;48526;48.846;2.322;2023-04-03T04:29:19;14.75;;;10.25;;
62479;SDS011;48526;48.846;2.322;2023-04-03T04:31:45;15.25;;;12.75;;
62479;SDS011;48526;48.846;2.322;2023-04-03T04:34:10;20.25;;;19.25;;
62479;SDS011;48526;48.846;2.322;2023-04-03T04:36:37;15.25;;;11.50;;
62479;SDS011;48526;48.846;2.322;2023-04-03T04:39:04;19.00;;;14.25;;
62479;SDS011;48526;48.846;2.322;2023-04-03T04:41:30;17.00;;;12.50;;
62479;SDS011;48526;48.846;2.322;2023-04-03T04:43:55;22.25;;;18.00;;
62479;SDS011;48526;48.846;2.322;2023-04-03T04:46:21;16.75;;;13.50;;
62479;SDS011;48526;48.846;2.322;2023-04-03T04:48:46;17.50;;;12.50;;
62479;SDS011;48526;48.846;2.322;2023-04-03T04:51:13;15.50;;;12.75;;
62479;SDS011;48526;48.846;2.322;2023-04-03T04:53:39;18.25;;;14.25;;
62479;SDS011;48526;48.846;2.322;2023-04-03T04:56:05;26.25;;;16.00;;
62479;SDS011;48526;48.846;2.322;2023-04-03T04:58:32;13.50;;;13.25;;
62479;SDS011;48526;48.846;2.322;2023-04-03T05:01:07;16.00;;;14.25;;
62479;SDS011;48526;48.846;2.322;2023-04-03T05:03:41;20.75;;;16.50;;
62479;SDS011;48526;48.846;2.322;2023-04-03T05:06:20;19.75;;;15.00;;
62479;SDS011;48526;48.846;2.322;2023-04-03T05:08:45;18.25;;;13.50;;
62479;SDS011;48526;48.846;2.322;2023-04-03T05:11:10;19.67;;;16.33;;
62479;SDS011;48526;48.846;2.322;2023-04-03T05:13:36;17.00;;;16.25;;
62479;SDS011;48526;48.846;2.322;2023-04-03T05:16:01;19.25;;;15.75;;
62479;SDS011;48526;48.846;2.322;2023-04-03T05:18:30;16.75;;;13.00;;
62479;SDS011;48526;48.846;2.322;2023-04-03T05:20:55;21.25;;;19.50;;
62479;SDS011;48526;48.846;2.322;2023-04-03T05:23:21;14.75;;;14.25;;
62479;SDS011;48526;48.846;2.322;2023-04-03T05:25:46;19.75;;;14.25;;
62479;SDS011;48526;48.846;2.322;2023-04-03T05:28:13;23.50;;;19.75;;
62479;SDS011;48526;48.846;2.322;2023-04-03T05:30:46;18.50;;;16.25;;
62479;SDS011;48526;48.846;2.322;2023-04-03T05:33:18;24.25;;;14.25;;
62479;SDS011;48526;48.846;2.322;2023-04-03T05:35:43;19.25;;;15.00;;
62479;SDS011;48526;48.846;2.322;2023-04-03T05:38:09;18.75;;;17.50;;
62479;SDS011;48526;48.846;2.322;2023-04-03T05:40:34;19.00;;;17.00;;
62479;SDS011;48526;48.846;2.322;2023-04-03T05:42:59;22.75;;;17.50;;
62479;SDS011;48526;48.846;2.322;2023-04-03T05:45:25;18.33;;;16.00;;
62479;SDS011;48526;48.846;2.322;2023-04-03T05:47:50;21.75;;;17.25;;
62479;SDS011;48526;48.846;2.322;2023-04-03T05:50:16;21.50;;;17.00;;
62479;SDS011;48526;48.846;2.322;2023-04-03T05:52:42;15.25;;;13.50;;
62479;SDS011;48526;48.846;2.322;2023-04-03T05:55:09;16.00;;;12.00;;
62479;SDS011;48526;48.846;2.322;2023-04-03T05:57:35;18.75;;;14.50;;
62479;SDS011;48526;48.846;2.322;2023-04-03T06:00:00;22.50;;;15.00;;
62479;SDS011;48526;48.846;2.322;2023-04-03T06:02:26;29.25;;;17.50;;
62479;SDS011;48526;48.846;2.322;2023-04-03T06:04:52;18.50;;;16.50;;
62479;SDS011;48526;48.846;2.322;2023-04-03T06:07:18;18.75;;;17.00;;
62479;SDS011;48526;48.846;2.322;2023-04-03T06:09:52;17.50;;;13.00;;
62479;SDS011;48526;48.846;2.322;2023-04-03T06:12:18;19.50;;;19.00;;
62479;SDS011;48526;48.846;2.322;2023-04-03T06:14:44;21.00;;;20.00;;
62479;SDS011;48526;48.846;2.322;2023-04-03T06:17:10;20.00;;;16.75;;
62479;SDS011;48526;48.846;2.322;2023-04-03T06:19:37;24.50;;;19.50;;
62479;SDS011;48526;48.846;2.322;2023-04-03T06:22:02;20.00;;;17.25;;
62479;SDS011;48526;48.846;2.322;2023-04-03T06:24:28;19.50;;;15.75;;
62479;SDS011;48526;48.846;2.322;2023-04-03T06:26:53;19.00;;;19.00;;
62479;SDS011;48526;48.846;2.322;2023-04-03T06:29:19;16.25;;;13.75;;
62479;SDS011;48526;48.846;2.322;2023-04-03T06:31:47;18.50;;;16.25;;
62479;SDS011;48526;48.846;2.322;2023-04-03T06:34:13;16.25;;;16.00;;
62479;SDS011;48526;48.846;2.322;2023-04-03T06:36:40;21.50;;;18.50;;
62479;SDS011;48526;48.846;2.322;2023-04-03T06:39:06;23.25;;;21.25;;
62479;SDS011;48526;48.846;2.322;2023-04-03T06:41:32;20.75;;;17.00;;
62479;SDS011;48526;48.846;2.322;2023-04-03T06:43:57;20.25;;;16.25;;
62479;SDS011;48526;48.846;2.322;2023-04-03T06:46:23;24.25;;;20.00;;
62479;SDS011;48526;48.846;2.322;2023-04-03T06:48:50;19.75;;;15.75;;
62479;SDS011;48526;48.846;2.322;2023-04-03T06:51:20;24.25;;;17.00;;
62479;SDS011;48526;48.846;2.322;2023-04-03T06:53:50;20.50;;;19.25;;
62479;SDS011;48526;48.846;2.322;2023-04-03T06:56:16;19.00;;;13.50;;
62479;SDS011;48526;48.846;2.322;2023-04-03T06:58:42;22.25;;;19.50;;
62479;SDS011;48526;48.846;2.322;2023-04-03T07:01:08;19.50;;;15.50;;
62479;SDS011;48526;48.846;2.322;2023-04-03T07:03:36;23.00;;;15.25;;
62479;SDS011;48526;48.846;2.322;2023-04-03T07:06:02;20.50;;;16.50;;
62479;SDS011;48526;48.846;2.322;2023-04-03T07:08:28;24.75;;;19.25;;
62479;SDS011;48526;48.846;2.322;2023-04-03T07:10:54;17.75;;;15.75;;
62479;SDS011;48526;48.846;2.322;2023-04-03T07:13:19;29.00;;;16.25;;
62479;SDS011;48526;48.846;2.322;2023-04-03T07:15:45;16.25;;;13.50;;
62479;SDS011;48526;48.846;2.322;2023-04-03T07:18:10;21.75;;;15.75;;
62479;SDS011;48526;48.846;2.322;2023-04-03T07:20:36;22.75;;;14.75;;
62479;SDS011;48526;48.846;2.322;2023-04-03T07:23:01;20.25;;;16.50;;
62479;SDS011;48526;48.846;2.322;2023-04-03T07:25:27;24.75;;;18.00;;
62479;SDS011;48526;48.846;2.322;2023-04-03T07:27:53;20.25;;;17.75;;
62479;SDS011;48526;48.846;2.322;2023-04-03T07:30:19;24.25;;;19.75;;
62479;SDS011;48526;48.846;2.322;2023-04-03T07:32:45;19.50;;;17.50;;
62479;SDS011;48526;48.846;2.322;2023-04-03T07:35:11;19.50;;;14.25;;
62479;SDS011;48526;48.846;2.322;2023-04-03T07:37:36;17.50;;;16.50;;
62479;SDS011;48526;48.846;2.322;2023-04-03T07:40:02;16.50;;;15.75;;
62479;SDS011;48526;48.846;2.322;2023-04-03T07:42:28;22.50;;;16.25;;
62479;SDS011;48526;48.846;2.322;2023-04-03T07:44:54;16.25;;;12.75;;
62479;SDS011;48526;48.846;2.322;2023-04-03T07:47:20;16.00;;;13.00;;
62479;SDS011;48526;48.846;2.322;2023-04-03T07:49:46;18.00;;;17.75;;
62479;SDS011;48526;48.846;2.322;2023-04-03T07:52:12;18.00;;;11.50;;
62479;SDS011;48526;48.846;2.322;2023-04-03T07:54:39;20.25;;;16.00;;
62479;SDS011;48526;48.846;2.322;2023-04-03T07:57:05;16.75;;;16.00;;
62479;SDS011;48526;48.846;2.322;2023-04-03T07:59:30;15.00;;;13.75;;
62479;SDS011;48526;48.846;2.322;2023-04-03T08:01:56;16.00;;;13.75;;
62479;SDS011;48526;48.846;2.322;2023-04-03T08:04:22;12.75;;;11.75;;
62479;SDS011;48526;48.846;2.322;2023-04-03T08:06:47;17.00;;;13.00;;
62479;SDS011;48526;48.846;2.322;2023-04-03T08:09:13;13.00;;;10.00;;
62479;SDS011;48526;48.846;2.322;2023-04-03T08:11:40;6.50;;;5.75;;
62479;SDS011;48526;48.846;2.322;2023-04-03T08:14:05;15.50;;;14.50;;
62479;SDS011;48526;48.846;2.322;2023-04-03T08:16:31;15.00;;;13.50;;
62479;SDS011;48526;48.846;2.322;2023-04-03T08:18:56;13.25;;;10.25;;
62479;SDS011;48526;48.846;2.322;2023-04-03T08:21:22;16.50;;;14.00;;
62479;SDS011;48526;48.846;2.322;2023-04-03T08:23:48;13.75;;;11.00;;
62479;SDS011;48526;48.846;2.322;2023-04-03T08:26:19;9.00;;;9.00;;
62479;SDS011;48526;48.846;2.322;2023-04-03T08:28:46;8.50;;;5.75;;
62479;SDS011;48526;48.846;2.322;2023-04-03T08:31:14;11.25;;;10.75;;
62479;SDS011;48526;48.846;2.322;2023-04-03T08:33:41;9.75;;;6.00;;
62479;SDS011;48526;48.846;2.322;2023-04-03T08:36:07;12.25;;;8.50;;
62479;SDS011;48526;48.846;2.322;2023-04-03T08:38:39;14.50;;;9.00;;
62479;SDS011;48526;48.846;2.322;2023-04-03T08:49:13;9.75;;;7.00;;
62479;SDS011;48526;48.846;2.322;2023-04-03T08:51:47;16.00;;;8.00;;
62479;SDS011;48526;48.846;2.322;2023-04-03T08:54:19;9.25;;;9.00;;
62479;SDS011;48526;48.846;2.322;2023-04-03T08:57:14;9.25;;;9.25;;
62479;SDS011;48526;48.846;2.322;2023-04-03T08:59:40;8.00;;;8.00;;
62479;SDS011;48526;48.846;2.322;2023-04-03T09:05:19;11.50;;;7.00;;
62479;SDS011;48526;48.846;2.322;2023-04-03T09:07:47;7.00;;;5.75;;
62479;SDS011;48526;48.846;2.322;2023-04-03T09:10:15;3.50;;;2.00;;
62479;SDS011;48526;48.846;2.322;2023-04-03T09:12:51;10.00;;;9.50;;
62479;SDS011;48526;48.846;2.322;2023-04-03T09:15:21;9.00;;;9.00;;
62479;SDS011;48526;48.846;2.322;2023-04-03T09:17:53;9.25;;;6.75;;
62479;SDS011;48526;48.846;2.322;2023-04-03T09:23:16;6.00;;;6.00;;
62479;SDS011;48526;48.846;2.322;2023-04-03T09:25:45;8.75;;;6.00;;
62479;SDS011;48526;48.846;2.322;2023-04-03T09:28:11;8.00;;;7.00;;
62479;SDS011;48526;48.846;2.322;2023-04-03T09:30:37;8.50;;;6.75;;
62479;SDS011;48526;48.846;2.322;2023-04-03T09:33:03;6.00;;;6.00;;
62479;SDS011;48526;48.846;2.322;2023-04-03T09:35:33;10.00;;;6.00;;
62479;SDS011;48526;48.846;2.322;2023-04-03T09:40:37;11.75;;;8.00;;
62479;SDS011;48526;48.846;2.322;2023-04-03T09:43:19;14.00;;;6.75;;
62479;SDS011;48526;48.846;2.322;2023-04-03T09:45:47;9.50;;;6.50;;
62479;SDS011;48526;48.846;2.322;2023-04-03T09:56:47;10.25;;;6.75;;
62479;SDS011;48526;48.846;2.322;2023-04-03T09:59:06;3.50;;;3.50;;
62479;SDS011;48526;48.846;2.322;2023-04-03T10:01:34;5.75;;;5.00;;
62479;SDS011;48526;48.846;2.322;2023-04-03T10:04:17;6.25;;;6.25;;
62479;SDS011;48526;48.846;2.322;2023-04-03T10:14:31;9.50;;;6.50;;
62479;SDS011;48526;48.846;2.322;2023-04-03T10:31:15;7.25;;;6.25;;
62479;SDS011;48526;48.846;2.322;2023-04-03T10:34:02;6.25;;;6.25;;
62479;SDS011;48526;48.846;2.322;2023-04-03T10:39:28;7.00;;;5.75;;
62479;SDS011;48526;48.846;2.322;2023-04-03T10:49:56;10.25;;;6.25;;
62479;SDS011;48526;48.846;2.322;2023-04-03T10:52:30;7.00;;;6.00;;
62479;SDS011;48526;48.846;2.322;2023-04-03T10:55:45;9.75;;;5.50;;
62479;SDS011;48526;48.846;2.322;2023-04-03T10:58:18;7.50;;;7.00;;
62479;SDS011;48526;48.846;2.322;2023-04-03T11:00:49;8.00;;;8.00;;
62479;SDS011;48526;48.846;2.322;2023-04-03T11:03:17;10.00;;;6.00;;
62479;SDS011;48526;48.846;2.322;2023-04-03T11:05:49;6.75;;;5.25;;
62479;SDS011;48526;48.846;2.322;2023-04-03T11:08:33;4.00;;;4.00;;
62479;SDS011;48526;48.846;2.322;2023-04-03T11:11:00;5.00;;;5.00;;
62479;SDS011;48526;48.846;2.322;2023-04-03T11:13:38;7.75;;;5.00;;
62479;SDS011;48526;48.846;2.322;2023-04-03T11:16:13;6.50;;;6.50;;
62479;SDS011;48526;48.846;2.322;2023-04-03T11:18:49;6.75;;;4.50;;
62479;SDS011;48526;48.846;2.322;2023-04-03T11:21:25;7.75;;;7.75;;
62479;SDS011;48526;48.846;2.322;2023-04-03T11:23:57;7.00;;;7.00;;
62479;SDS011;48526;48.846;2.322;2023-04-03T11:26:24;5.25;;;5.25;;
62479;SDS011;48526;48.846;2.322;2023-04-03T11:34:42;6.50;;;6.50;;
62479;SDS011;48526;48.846;2.322;2023-04-03T11:40:04;4.00;;;4.00;;
62479;SDS011;48526;48.846;2.322;2023-04-03T11:47:50;4.25;;;4.25;;
62479;SDS011;48526;48.846;2.322;2023-04-03T12:14:23;11.00;;;6.00;;
62479;SDS011;48526;48.846;2.322;2023-04-03T12:16:30;6.50;;;6.00;;
62479;SDS011;48526;48.846;2.322;2023-04-03T12:19:03;2.75;;;2.75;;
62479;SDS011;48526;48.846;2.322;2023-04-03T12:24:27;9.25;;;7.00;;
62479;SDS011;48526;48.846;2.322;2023-04-03T12:40:10;5.50;;;5.50;;
62479;SDS011;48526;48.846;2.322;2023-04-03T12:42:42;3.00;;;3.00;;
62479;SDS011;48526;48.846;2.322;2023-04-03T12:45:17;3.75;;;3.75;;
62479;SDS011;48526;48.846;2.322;2023-04-03T12:47:45;6.00;;;4.00;;
62479;SDS011;48526;48.846;2.322;2023-04-03T12:50:31;4.00;;;4.00;;
62479;SDS011;48526;48.846;2.322;2023-04-03T12:53:01;2.00;;;2.00;;
62479;SDS011;48526;48.846;2.322;2023-04-03T12:55:29;4.75;;;2.00;;
62479;SDS011;48526;48.846;2.322;2023-04-03T12:57:55;6.00;;;4.00;;
62479;SDS011;48526;48.846;2.322;2023-04-03T13:02:46;2.25;;;1.25;;
62479;SDS011;48526;48.846;2.322;2023-04-03T13:05:16;3.50;;;3.25;;
62479;SDS011;48526;48.846;2.322;2023-04-03T13:07:43;3.75;;;3.75;;
62479;SDS011;48526;48.846;2.322;2023-04-03T13:12:34;4.50;;;4.00;;
62479;SDS011;48526;48.846;2.322;2023-04-03T13:15:10;4.50;;;4.00;;
62479;SDS011;48526;48.846;2.322;2023-04-03T13:17:38;4.75;;;4.75;;
62479;SDS011;48526;48.846;2.322;2023-04-03T13:23:04;6.25;;;4.75;;
62479;SDS011;48526;48.846;2.322;2023-04-03T13:25:32;4.25;;;4.25;;
62479;SDS011;48526;48.846;2.322;2023-04-03T13:27:59;6.50;;;2.00;;
62479;SDS011;48526;48.846;2.322;2023-04-03T13:30:27;6.75;;;4.00;;
62479;SDS011;48526;48.846;2.322;2023-04-03T13:32:58;4.00;;;4.00;;
62479;SDS011;48526;48.846;2.322;2023-04-03T13:35:27;3.75;;;3.75;;
62479;SDS011;48526;48.846;2.322;2023-04-03T13:40:50;5.50;;;4.75;;
62479;SDS011;48526;48.846;2.322;2023-04-03T13:43:24;5.25;;;5.25;;
62479;SDS011;48526;48.846;2.322;2023-04-03T13:48:40;7.25;;;6.00;;
62479;SDS011;48526;48.846;2.322;2023-04-03T13:53:44;5.67;;;5.67;;
62479;SDS011;48526;48.846;2.322;2023-04-03T13:56:16;5.25;;;4.75;;
62479;SDS011;48526;48.846;2.322;2023-04-03T13:58:52;4.00;;;4.00;;
62479;SDS011;48526;48.846;2.322;2023-04-03T14:01:25;7.25;;;5.25;;
62479;SDS011;48526;48.846;2.322;2023-04-03T14:03:54;9.00;;;6.00;;
62479;SDS011;48526;48.846;2.322;2023-04-03T14:06:21;5.75;;;4.00;;
62479;SDS011;48526;48.846;2.322;2023-04-03T14:08:47;3.25;;;3.25;;
62479;SDS011;48526;48.846;2.322;2023-04-03T14:11:15;4.75;;;4.50;;
62479;SDS011;48526;48.846;2.322;2023-04-03T14:13:43;3.00;;;3.00;;
62479;SDS011;48526;48.846;2.322;2023-04-03T14:16:14;8.00;;;4.00;;
62479;SDS011;48526;48.846;2.322;2023-04-03T14:18:41;4.00;;;3.00;;
62479;SDS011;48526;48.846;2.322;2023-04-03T14:21:09;6.00;;;4.25;;
62479;SDS011;48526;48.846;2.322;2023-04-03T14:23:37;3.75;;;2.00;;
62479;SDS011;48526;48.846;2.322;2023-04-03T14:26:02;7.75;;;5.25;;
62479;SDS011;48526;48.846;2.322;2023-04-03T14:28:29;4.25;;;3.75;;
62479;SDS011;48526;48.846;2.322;2023-04-03T14:30:56;5.50;;;3.25;;
62479;SDS011;48526;48.846;2.322;2023-04-03T14:33:22;5.25;;;4.00;;
62479;SDS011;48526;48.846;2.322;2023-04-03T14:35:47;3.75;;;3.75;;
62479;SDS011;48526;48.846;2.322;2023-04-03T14:38:24;4.00;;;3.75;;
62479;SDS011;48526;48.846;2.322;2023-04-03T14:40:51;4.00;;;4.00;;
62479;SDS011;48526;48.846;2.322;2023-04-03T14:43:17;4.00;;;3.00;;
62479;SDS011;48526;48.846;2.322;2023-04-03T14:45:43;3.50;;;3.50;;
62479;SDS011;48526;48.846;2.322;2023-04-03T14:51:00;3.75;;;3.75;;
62479;SDS011;48526;48.846;2.322;2023-04-03T14:53:29;7.00;;;4.00;;
62479;SDS011;48526;48.846;2.322;2023-04-03T14:55:56;4.50;;;4.50;;
62479;SDS011;48526;48.846;2.322;2023-04-03T14:58:23;4.00;;;3.00;;
62479;SDS011;48526;48.846;2.322;2023-04-03T15:00:53;4.00;;;3.50;;
62479;SDS011;48526;48.846;2.322;2023-04-03T15:03:19;4.00;;;4.00;;
62479;SDS011;48526;48.846;2.322;2023-04-03T15:05:46;4.00;;;3.00;;
62479;SDS011;48526;48.846;2.322;2023-04-03T15:08:23;9.00;;;4.00;;
62479;SDS011;48526;48.846;2.322;2023-04-03T15:10:51;3.00;;;2.75;;
62479;SDS011;48526;48.846;2.322;2023-04-03T15:13:20;6.75;;;3.00;;
62479;SDS011;48526;48.846;2.322;2023-04-03T15:15:46;4.50;;;3.00;;
62479;SDS011;48526;48.846;2.322;2023-04-03T15:18:18;2.75;;;2.75;;
62479;SDS011;48526;48.846;2.322;2023-04-03T15:20:45;4.00;;;4.00;;
62479;SDS011;48526;48.846;2.322;2023-04-03T15:23:12;3.25;;;3.25;;
62479;SDS011;48526;48.846;2.322;2023-04-03T15:25:40;4.00;;;4.00;;
62479;SDS011;48526;48.846;2.322;2023-04-03T15:28:10;2.75;;;2.00;;
62479;SDS011;48526;48.846;2.322;2023-04-03T15:30:43;3.50;;;3.25;;
62479;SDS011;48526;48.846;2.322;2023-04-03T15:33:08;5.00;;;5.00;;
62479;SDS011;48526;48.846;2.322;2023-04-03T15:35:34;3.00;;;3.00;;
62479;SDS011;48526;48.846;2.322;2023-04-03T15:37:59;3.00;;;3.00;;
62479;SDS011;48526;48.846;2.322;2023-04-03T15:40:25;3.75;;;2.50;;
62479;SDS011;48526;48.846;2.322;2023-04-03T15:42:50;3.75;;;3.75;;
62479;SDS011;48526;48.846;2.322;2023-04-03T15:45:16;2.75;;;1.75;;
62479;SDS011;48526;48.846;2.322;2023-04-03T15:47:41;3.50;;;3.50;;
62479;SDS011;48526;48.846;2.322;2023-04-03T15:50:07;3.75;;;3.75;;
62479;SDS011;48526;48.846;2.322;2023-04-03T15:52:33;5.00;;;3.75;;
62479;SDS011;48526;48.846;2.322;2023-04-03T15:54:58;4.00;;;4.00;;
62479;SDS011;48526;48.846;2.322;2023-04-03T15:57:24;3.00;;;3.00;;
62479;SDS011;48526;48.846;2.322;2023-04-03T15:59:53;5.25;;;4.00;;
62479;SDS011;48526;48.846;2.322;2023-04-03T16:02:18;5.00;;;3.75;;
62479;SDS011;48526;48.846;2.322;2023-04-03T16:04:44;5.75;;;4.75;;
62479;SDS011;48526;48.846;2.322;2023-04-03T16:07:10;3.00;;;3.00;;
62479;SDS011;48526;48.846;2.322;2023-04-03T16:09:35;4.75;;;4.25;;
62479;SDS011;48526;48.846;2.322;2023-04-03T16:12:01;4.00;;;3.00;;
62479;SDS011;48526;48.846;2.322;2023-04-03T16:14:27;7.25;;;6.75;;
62479;SDS011;48526;48.846;2.322;2023-04-03T16:16:54;5.00;;;4.00;;
62479;SDS011;48526;48.846;2.322;2023-04-03T16:19:20;7.00;;;5.00;;
62479;SDS011;48526;48.846;2.322;2023-04-03T16:21:46;6.50;;;4.00;;
62479;SDS011;48526;48.846;2.322;2023-04-03T16:24:12;4.75;;;3.50;;
62479;SDS011;48526;48.846;2.322;2023-04-03T16:26:37;4.50;;;4.50;;
62479;SDS011;48526;48.846;2.322;2023-04-03T16:29:03;4.25;;;3.50;;
62479;SDS011;48526;48.846;2.322;2023-04-03T16:31:28;4.50;;;4.50;;
62479;SDS011;48526;48.846;2.322;2023-04-03T16:33:54;2.75;;;2.75;;
62479;SDS011;48526;48.846;2.322;2023-04-03T16:36:19;4.50;;;4.00;;
62479;SDS011;48526;48.846;2.322;2023-04-03T16:38:45;6.75;;;6.75;;
62479;SDS011;48526;48.846;2.322;2023-04-03T16:41:10;3.00;;;3.00;;
62479;SDS011;48526;48.846;2.322;2023-04-03T16:43:36;6.00;;;4.00;;
62479;SDS011;48526;48.846;2.322;2023-04-03T16:46:02;6.50;;;4.50;;
62479;SDS011;48526;48.846;2.322;2023-04-03T16:48:28;7.75;;;3.00;;